Time;durP1;ratioP1;P1;durP2;ratioP2;P2;SDS_P1;SDS_P2;PMS_P1;PMS_P2;Temp;Humidity;BMP_temperature;BMP_pressure;BME280_temperature;BME280_humidity;BME280_pressure;Samples;Min_cycle;Max_cycle;Signal;HPM_P1;HPM_P2
2024/01/02 00:02:24;;;;;;;38.13;34.72;;;;;;;6.99;100.00;100883.59;4956423;28;20059;-56
2024/01/02 00:04:51;;;;;;;38.15;34.95;;;;;;;6.99;100.00;100877.47;4961782;28;20448;-56
2024/01/02 00:07:18;;;;;;;40.70;37.45;;;;;;;7.00;100.00;100879.13;4962327;28;20055;-56
2024/01/02 00:09:44;;;;;;;40.20;36.95;;;;;;;7.03;100.00;100892.00;4964220;28;20054;-56
2024/01/02 00:12:11;;;;;;;39.67;36.60;;;;;;;7.08;100.00;100879.91;4963347;28;20069;-57
2024/01/02 00:14:38;;;;;;;38.90;35.80;;;;;;;6.82;100.00;100876.81;4960512;28;20429;-56
2024/01/02 00:17:05;;;;;;;40.72;36.75;;;;;;;6.76;100.00;100873.06;4956113;28;20059;-56
2024/01/02 00:19:33;;;;;;;38.67;35.13;;;;;;;6.99;100.00;100867.75;4960930;28;20409;-56
2024/01/02 00:22:00;;;;;;;39.65;36.28;;;;;;;6.82;100.00;100864.44;4966667;28;20073;-56
2024/01/02 00:24:27;;;;;;;36.95;33.95;;;;;;;6.77;100.00;100858.84;4962898;28;20059;-56
2024/01/02 00:26:54;;;;;;;35.17;32.38;;;;;;;6.76;100.00;100862.50;4957100;28;20070;-56
2024/01/02 00:29:20;;;;;;;41.88;38.20;;;;;;;6.81;100.00;100862.78;4960252;28;20772;-57
2024/01/02 00:31:47;;;;;;;40.13;36.95;;;;;;;6.86;100.00;100859.59;4959566;28;20062;-61
2024/01/02 00:34:14;;;;;;;40.03;36.47;;;;;;;6.83;100.00;100867.88;4960803;28;20063;-61
2024/01/02 00:36:43;;;;;;;39.55;36.30;;;;;;;6.76;100.00;100870.41;4965238;28;20059;-56
2024/01/02 00:39:10;;;;;;;35.65;32.75;;;;;;;6.68;100.00;100869.66;4959983;28;20418;-56
2024/01/02 00:41:37;;;;;;;38.30;35.28;;;;;;;6.92;100.00;100874.72;4962288;28;20258;-57
2024/01/02 00:44:04;;;;;;;37.75;34.75;;;;;;;6.81;100.00;100864.63;4955171;28;20047;-57
2024/01/02 00:46:31;;;;;;;35.63;32.80;;;;;;;6.81;100.00;100869.91;4965431;28;20061;-57
2024/01/02 00:48:58;;;;;;;37.08;34.15;;;;;;;6.90;100.00;100874.13;4959183;28;20051;-57
2024/01/02 00:51:24;;;;;;;39.88;36.42;;;;;;;6.87;100.00;100863.91;4969388;28;20061;-60
2024/01/02 00:53:53;;;;;;;42.63;39.13;;;;;;;7.00;100.00;100876.50;4963184;28;20074;-61
2024/01/02 00:56:19;;;;;;;38.10;35.10;;;;;;;7.20;100.00;100864.44;4958831;28;20444;-57
2024/01/02 00:58:46;;;;;;;38.58;35.47;;;;;;;7.14;100.00;100864.31;4965321;28;20524;-60
2024/01/02 01:01:13;;;;;;;39.55;36.38;;;;;;;7.15;100.00;100860.69;4957642;28;20055;-61
2024/01/02 01:03:40;;;;;;;37.05;34.35;;;;;;;7.16;100.00;100857.84;4968347;28;20087;-56
2024/01/02 01:06:07;;;;;;;38.85;35.85;;;;;;;7.13;100.00;100871.41;4955267;28;20797;-56
2024/01/02 01:08:34;;;;;;;38.05;35.15;;;;;;;7.20;100.00;100868.88;4960373;28;20051;-56
2024/01/02 01:11:02;;;;;;;38.83;35.70;;;;;;;7.15;100.00;100871.25;4965142;28;20046;-56
2024/01/02 01:13:29;;;;;;;38.13;35.28;;;;;;;7.09;100.00;100868.31;4962722;28;20047;-57
2024/01/02 01:15:56;;;;;;;36.83;34.03;;;;;;;7.00;100.00;100865.94;4962246;28;20595;-56
2024/01/02 01:18:22;;;;;;;39.30;36.50;;;;;;;7.03;100.00;100868.22;4962454;28;20050;-56
2024/01/02 01:20:49;;;;;;;39.33;36.63;;;;;;;7.06;100.00;100868.69;4959627;28;20043;-56
2024/01/02 01:23:16;;;;;;;37.47;34.67;;;;;;;7.17;100.00;100877.16;4964345;28;20050;-57
2024/01/02 01:25:43;;;;;;;37.58;34.83;;;;;;;7.14;100.00;100882.78;4958170;28;20043;-56
2024/01/02 01:28:11;;;;;;;39.15;36.08;;;;;;;7.19;100.00;100888.38;4962983;28;20054;-56
2024/01/02 01:30:38;;;;;;;38.15;35.38;;;;;;;7.09;100.00;100878.88;4965434;28;20046;-56
2024/01/02 01:33:07;;;;;;;42.30;39.13;;;;;;;7.15;100.00;100881.81;4968358;28;20138;-56
2024/01/02 01:35:34;;;;;;;41.17;38.28;;;;;;;7.12;100.00;100883.00;4962688;28;20208;-57
2024/01/02 01:38:01;;;;;;;35.63;32.83;;;;;;;7.19;100.00;100868.06;4953940;28;20148;-57
2024/01/02 01:40:28;;;;;;;37.45;34.45;;;;;;;7.25;100.00;100869.16;4961754;28;20506;-57
2024/01/02 01:42:55;;;;;;;36.67;33.92;;;;;;;7.17;100.00;100866.59;4961979;28;20051;-56
2024/01/02 01:45:23;;;;;;;38.75;35.65;;;;;;;7.23;100.00;100861.44;4962552;28;20066;-57
2024/01/02 01:47:51;;;;;;;36.83;34.03;;;;;;;7.27;100.00;100875.91;4967163;28;20054;-56
2024/01/02 01:50:18;;;;;;;37.90;35.20;;;;;;;7.21;100.00;100874.00;4963201;28;20539;-56
2024/01/02 01:52:46;;;;;;;39.22;35.70;;;;;;;7.26;100.00;100873.44;4958494;28;20055;-56
2024/01/02 01:55:14;;;;;;;34.15;31.65;;;;;;;7.29;100.00;100867.78;4960728;28;20437;-56
2024/01/02 01:57:42;;;;;;;44.50;41.38;;;;;;;7.26;100.00;100874.28;4956703;28;20066;-56
2024/01/02 02:00:10;;;;;;;41.08;37.95;;;;;;;7.27;100.00;100875.91;4961415;28;20058;-56
2024/01/02 02:02:41;;;;;;;37.03;34.30;;;;;;;7.34;100.00;100865.44;4955851;28;20066;-56
2024/01/02 02:05:10;;;;;;;35.22;32.60;;;;;;;7.25;100.00;100866.53;4955262;28;20521;-56
2024/01/02 02:07:40;;;;;;;38.08;35.38;;;;;;;7.24;100.00;100865.72;4960866;28;20066;-56
2024/01/02 02:10:08;;;;;;;36.25;33.65;;;;;;;7.21;100.00;100860.78;4957434;28;20047;-57
2024/01/02 02:12:36;;;;;;;35.88;33.17;;;;;;;7.24;100.00;100856.97;4963845;28;20098;-56
2024/01/02 02:15:03;;;;;;;40.60;37.70;;;;;;;7.24;100.00;100854.31;4957660;28;20051;-57
2024/01/02 02:17:30;;;;;;;38.00;35.20;;;;;;;7.29;100.00;100859.88;4973167;28;20133;-56
2024/01/02 02:19:58;;;;;;;34.00;31.55;;;;;;;7.39;100.00;100863.09;4958637;28;20051;-56
2024/01/02 02:22:39;;;;;;;36.78;34.08;;;;;;;7.50;100.00;100862.63;4957139;28;20058;-56
2024/01/02 02:25:09;;;;;;;34.22;32.03;;;;;;;7.74;100.00;100852.75;4961072;28;20071;-56
2024/01/02 02:27:36;;;;;;;31.45;29.35;;;;;;;7.64;100.00;100860.97;4961384;28;20448;-56
2024/01/02 02:30:04;;;;;;;29.40;27.40;;;;;;;7.62;100.00;100854.22;4967455;28;20043;-57
2024/01/02 02:32:30;;;;;;;33.00;30.70;;;;;;;7.57;100.00;100854.78;4961914;28;20078;-62
2024/01/02 02:34:57;;;;;;;36.85;34.40;;;;;;;7.65;100.00;100865.25;4955863;28;20062;-62
2024/01/02 02:37:24;;;;;;;33.10;30.90;;;;;;;7.47;100.00;100865.63;4955768;28;20058;-61
2024/01/02 02:39:51;;;;;;;34.95;32.95;;;;;;;7.53;100.00;100858.78;4961108;28;20441;-61
2024/01/02 02:42:19;;;;;;;37.35;34.22;;;;;;;7.38;100.00;100850.84;4951576;28;20508;-57
2024/01/02 02:44:46;;;;;;;34.90;32.70;;;;;;;7.49;100.00;100855.69;4958310;28;20062;-62
2024/01/02 02:47:13;;;;;;;34.45;32.35;;;;;;;7.48;100.00;100848.78;4963084;28;20059;-57
2024/01/02 02:49:41;;;;;;;37.42;35.22;;;;;;;7.47;100.00;100854.22;4956239;28;20536;-56
2024/01/02 02:52:07;;;;;;;34.20;31.90;;;;;;;7.56;100.00;100858.41;4955316;28;20063;-56
2024/01/02 02:54:34;;;;;;;30.98;29.08;;;;;;;7.76;100.00;100856.06;4962276;28;20055;-56
2024/01/02 02:57:02;;;;;;;33.10;31.30;;;;;;;7.49;100.00;100852.22;4957728;28;20516;-56
2024/01/02 02:59:30;;;;;;;33.28;31.38;;;;;;;7.67;100.00;100865.91;4958437;28;20437;-56
2024/01/02 03:01:57;;;;;;;29.58;27.83;;;;;;;7.73;100.00;100870.47;4957059;28;20055;-57
2024/01/02 03:04:24;;;;;;;30.38;28.67;;;;;;;7.45;100.00;100877.41;4959806;28;20418;-56
2024/01/02 03:06:51;;;;;;;30.48;28.88;;;;;;;7.28;100.00;100871.44;4961640;28;20052;-56
2024/01/02 03:09:21;;;;;;;32.67;30.98;;;;;;;7.19;100.00;100886.56;4963001;28;20062;-56
2024/01/02 03:11:48;;;;;;;33.83;32.13;;;;;;;7.40;100.00;100877.94;4969725;28;20322;-56
2024/01/02 03:14:15;;;;;;;34.38;32.58;;;;;;;7.21;100.00;100883.75;4969260;28;20117;-56
2024/01/02 03:16:43;;;;;;;31.65;29.85;;;;;;;7.52;100.00;100878.31;4969163;28;20051;-56
2024/01/02 03:19:11;;;;;;;27.83;26.27;;;;;;;7.18;100.00;100884.09;4960587;28;20051;-56
2024/01/02 03:21:37;;;;;;;30.02;28.13;;;;;;;7.29;100.00;100879.22;4964562;28;20061;-56
2024/01/02 03:24:05;;;;;;;35.05;33.05;;;;;;;7.16;100.00;100883.44;4966115;28;20051;-56
2024/01/02 03:26:31;;;;;;;33.13;31.38;;;;;;;7.18;100.00;100874.34;4962939;28;20078;-56
2024/01/02 03:28:58;;;;;;;31.23;29.42;;;;;;;6.98;100.00;100884.59;4965594;28;20046;-56
2024/01/02 03:31:25;;;;;;;34.08;32.05;;;;;;;6.95;100.00;100870.94;4965111;28;20050;-56
2024/01/02 03:33:53;;;;;;;32.30;30.40;;;;;;;7.03;100.00;100865.56;4959971;28;20531;-56
2024/01/02 03:36:21;;;;;;;30.80;29.10;;;;;;;7.21;100.00;100873.19;4963120;28;20497;-57
2024/01/02 03:38:50;;;;;;;32.90;30.98;;;;;;;7.25;100.00;100869.16;4958977;28;20047;-56
2024/01/02 03:41:17;;;;;;;34.20;32.20;;;;;;;7.21;100.00;100875.81;4977096;28;20451;-56
2024/01/02 03:43:45;;;;;;;32.50;30.60;;;;;;;7.06;100.00;100881.88;4969391;28;20571;-56
2024/01/02 03:46:12;;;;;;;29.90;28.13;;;;;;;7.13;100.00;100873.25;4965288;28;20051;-56
2024/01/02 03:48:39;;;;;;;29.80;28.30;;;;;;;7.11;100.00;100876.09;4965174;28;20620;-56
2024/01/02 03:51:08;;;;;;;26.65;25.25;;;;;;;7.09;100.00;100880.72;4962202;28;20046;-56
2024/01/02 03:53:34;;;;;;;32.85;30.90;;;;;;;6.86;100.00;100880.72;4957371;28;20051;-56
2024/01/02 03:56:02;;;;;;;29.70;28.10;;;;;;;7.17;100.00;100883.28;4962513;28;20623;-56
2024/01/02 03:58:30;;;;;;;32.40;30.60;;;;;;;6.94;100.00;100887.78;4963001;28;20444;-57
2024/01/02 04:00:57;;;;;;;30.35;28.33;;;;;;;6.93;100.00;100894.03;4958469;28;20055;-56
2024/01/02 04:03:24;;;;;;;30.25;28.35;;;;;;;6.77;100.00;100897.63;4961053;28;20058;-56
2024/01/02 04:05:52;;;;;;;29.50;27.40;;;;;;;6.84;100.00;100899.41;4961661;28;20051;-57
2024/01/02 04:08:21;;;;;;;27.58;25.73;;;;;;;6.93;100.00;100886.97;4961651;28;20062;-56
2024/01/02 04:10:48;;;;;;;28.70;26.83;;;;;;;6.77;100.00;100887.88;4966756;28;20051;-56
2024/01/02 04:13:15;;;;;;;26.73;25.02;;;;;;;6.65;100.00;100881.38;4964309;28;20082;-56
2024/01/02 04:15:42;;;;;;;28.23;26.33;;;;;;;6.69;100.00;100873.94;4961008;28;20865;-56
2024/01/02 04:18:08;;;;;;;28.48;26.58;;;;;;;6.71;100.00;100877.22;4957202;28;20059;-56
2024/01/02 04:20:35;;;;;;;26.40;24.60;;;;;;;6.64;100.00;100885.03;4961257;28;20043;-56
2024/01/02 04:23:02;;;;;;;24.05;22.55;;;;;;;6.60;100.00;100881.09;4964120;28;20520;-56
2024/01/02 04:25:30;;;;;;;26.92;25.02;;;;;;;6.73;100.00;100875.22;4964450;28;20062;-57
2024/01/02 04:27:57;;;;;;;25.90;24.10;;;;;;;6.70;100.00;100875.59;4959833;28;20054;-57
2024/01/02 04:30:24;;;;;;;25.73;24.02;;;;;;;7.09;100.00;100875.44;4968347;28;20425;-56
2024/01/02 04:32:52;;;;;;;23.80;22.20;;;;;;;6.80;100.00;100873.50;4960138;28;20055;-56
2024/01/02 04:35:19;;;;;;;26.55;24.95;;;;;;;6.66;100.00;100877.75;4963609;28;20070;-56
2024/01/02 04:37:45;;;;;;;25.58;23.98;;;;;;;6.70;100.00;100883.50;4958036;28;20055;-56
2024/01/02 04:40:13;;;;;;;30.20;28.38;;;;;;;6.83;100.00;100887.19;4960248;28;20051;-56
2024/01/02 04:42:41;;;;;;;27.90;26.00;;;;;;;6.65;100.00;100900.66;4960487;28;20429;-56
2024/01/02 04:45:09;;;;;;;25.60;24.10;;;;;;;6.87;100.00;100898.22;4961220;28;20051;-57
2024/01/02 04:47:36;;;;;;;29.60;27.50;;;;;;;6.56;100.00;100904.38;4963937;28;20098;-57
2024/01/02 04:50:04;;;;;;;26.48;24.67;;;;;;;6.65;100.00;100900.66;4965191;28;20046;-57
2024/01/02 04:52:31;;;;;;;26.80;24.90;;;;;;;6.46;100.00;100895.03;4963505;28;20051;-57
2024/01/02 04:54:59;;;;;;;25.45;23.45;;;;;;;6.38;100.00;100895.91;4962648;28;20464;-57
2024/01/02 04:57:26;;;;;;;27.42;25.52;;;;;;;6.37;100.00;100889.00;4960972;28;20144;-56
2024/01/02 04:59:54;;;;;;;26.08;24.17;;;;;;;6.34;100.00;100890.16;4956953;28;20077;-56
2024/01/02 05:02:23;;;;;;;30.08;25.10;;;;;;;6.41;100.00;100906.09;4962273;28;20054;-56
2024/01/02 05:04:50;;;;;;;27.08;25.08;;;;;;;6.54;100.00;100909.00;4961741;28;20078;-57
2024/01/02 05:07:17;;;;;;;26.63;24.83;;;;;;;6.56;100.00;100904.38;4958917;28;20259;-57
2024/01/02 05:09:44;;;;;;;23.45;21.85;;;;;;;6.25;100.00;100908.84;4960255;28;20055;-57
2024/01/02 05:12:11;;;;;;;26.10;24.30;;;;;;;6.51;100.00;100913.81;4959709;28;20541;-57
2024/01/02 05:14:38;;;;;;;26.40;24.63;;;;;;;6.42;100.00;100920.97;4963778;28;20707;-57
2024/01/02 05:17:09;;;;;;;25.75;24.05;;;;;;;6.40;100.00;100926.41;4960303;28;20062;-57
2024/01/02 05:19:37;;;;;;;26.10;24.23;;;;;;;6.49;100.00;100929.81;4962261;28;20483;-62
2024/01/02 05:22:04;;;;;;;27.70;25.88;;;;;;;6.70;100.00;100917.81;4961809;28;20493;-62
2024/01/02 05:24:31;;;;;;;28.45;26.65;;;;;;;6.45;100.00;100915.34;4958558;28;20078;-57
2024/01/02 05:26:58;;;;;;;29.85;27.75;;;;;;;6.41;100.00;100929.84;4959254;28;20055;-57
2024/01/02 05:29:25;;;;;;;29.23;27.33;;;;;;;6.19;100.00;100927.00;4965036;28;20054;-57
2024/01/02 05:31:52;;;;;;;27.77;25.98;;;;;;;6.17;100.00;100928.16;4960316;28;20049;-57
2024/01/02 05:34:20;;;;;;;28.23;26.33;;;;;;;6.22;100.00;100941.66;4960504;28;20059;-57
2024/01/02 05:36:47;;;;;;;26.85;24.75;;;;;;;6.14;100.00;100941.69;4959861;28;20078;-57
2024/01/02 05:39:14;;;;;;;29.67;27.63;;;;;;;6.17;100.00;100949.25;4954999;28;20627;-62
2024/01/02 05:41:41;;;;;;;32.70;30.70;;;;;;;6.23;100.00;100945.13;4980981;28;20439;-56
2024/01/02 05:44:08;;;;;;;32.00;29.80;;;;;;;6.17;100.00;100942.19;4959491;28;20059;-57
2024/01/02 05:46:35;;;;;;;30.73;28.30;;;;;;;6.14;100.00;100950.44;4962379;28;20418;-57
2024/01/02 05:49:02;;;;;;;29.15;26.75;;;;;;;6.20;100.00;100956.81;4965295;28;20051;-62
2024/01/02 05:51:30;;;;;;;28.75;26.55;;;;;;;5.95;100.00;100956.09;4961636;28;20429;-56
2024/01/02 05:53:57;;;;;;;31.42;29.23;;;;;;;6.50;100.00;100959.66;4965021;28;20051;-57
2024/01/02 05:56:24;;;;;;;30.58;28.42;;;;;;;5.95;100.00;100959.56;4957306;28;20051;-57
2024/01/02 05:58:51;;;;;;;31.20;29.00;;;;;;;6.11;100.00;100965.75;4959005;28;20631;-57
2024/01/02 06:01:18;;;;;;;30.42;28.23;;;;;;;5.80;100.00;100961.22;4959645;28;20054;-56
2024/01/02 06:03:45;;;;;;;31.25;29.05;;;;;;;5.79;100.00;100956.94;4958907;28;20051;-57
2024/01/02 06:06:11;;;;;;;31.92;29.73;;;;;;;5.79;100.00;100954.31;4957519;28;20059;-57
2024/01/02 06:08:40;;;;;;;31.02;28.83;;;;;;;5.80;100.00;100955.13;4962766;28;20051;-57
2024/01/02 06:11:06;;;;;;;30.58;28.48;;;;;;;6.08;100.00;100952.91;4959344;28;20058;-57
2024/01/02 06:13:33;;;;;;;28.30;26.30;;;;;;;5.82;100.00;100964.50;4955719;28;20235;-57
2024/01/02 06:16:01;;;;;;;26.90;25.20;;;;;;;6.07;100.00;100970.56;4964133;28;20509;-57
2024/01/02 06:18:28;;;;;;;27.40;25.60;;;;;;;5.95;100.00;100978.00;4957490;28;20055;-55
2024/01/02 06:20:57;;;;;;;28.80;26.80;;;;;;;5.98;100.00;100982.13;4969940;28;20317;-56
2024/01/02 06:23:24;;;;;;;27.30;25.70;;;;;;;6.25;100.00;100985.34;4958250;28;20074;-55
2024/01/02 06:25:52;;;;;;;26.60;25.00;;;;;;;6.03;100.00;100985.09;4965642;28;20051;-55
2024/01/02 06:28:19;;;;;;;29.25;27.35;;;;;;;5.96;100.00;100987.59;4960167;28;20059;-56
2024/01/02 06:30:46;;;;;;;28.35;26.45;;;;;;;5.95;100.00;100980.66;4969604;28;20063;-55
2024/01/02 06:33:13;;;;;;;26.45;24.65;;;;;;;6.00;100.00;100990.69;4958375;28;20062;-55
2024/01/02 06:35:40;;;;;;;28.25;26.35;;;;;;;6.02;100.00;100991.38;4961810;28;20391;-55
2024/01/02 06:38:08;;;;;;;27.15;25.25;;;;;;;6.17;100.00;100996.72;4957331;28;20051;-56
2024/01/02 06:40:35;;;;;;;27.08;25.17;;;;;;;6.02;100.00;101003.69;4966487;28;20113;-55
2024/01/02 06:43:04;;;;;;;26.52;24.73;;;;;;;6.47;100.00;101004.88;4970871;28;20050;-55
2024/01/02 06:45:31;;;;;;;26.50;24.70;;;;;;;6.24;100.00;100991.63;4971304;28;20050;-56
2024/01/02 06:47:58;;;;;;;27.38;25.48;;;;;;;6.15;100.00;101001.38;4969711;28;20439;-55
2024/01/02 06:50:25;;;;;;;26.67;24.88;;;;;;;6.24;100.00;101002.16;4970731;28;20051;-55
2024/01/02 06:52:53;;;;;;;26.58;24.83;;;;;;;6.18;100.00;101004.50;4970141;28;20508;-55
2024/01/02 06:55:20;;;;;;;29.17;27.27;;;;;;;6.20;100.00;101014.84;4968868;28;20062;-55
2024/01/02 06:57:47;;;;;;;27.50;25.60;;;;;;;6.19;100.00;101014.03;4969376;28;20055;-55
2024/01/02 07:00:16;;;;;;;26.83;24.92;;;;;;;6.39;100.00;101025.03;4969067;28;20058;-56
2024/01/02 07:02:43;;;;;;;26.08;24.27;;;;;;;6.39;100.00;101024.22;4967997;28;20059;-55
2024/01/02 07:05:13;;;;;;;27.23;25.33;;;;;;;6.49;100.00;101031.91;4967577;28;20058;-55
2024/01/02 07:07:41;;;;;;;28.60;26.40;;;;;;;6.26;100.00;101035.28;4962928;28;20140;-57
2024/01/02 07:10:08;;;;;;;25.67;23.98;;;;;;;6.34;100.00;101029.16;4966456;28;20078;-60
2024/01/02 07:12:35;;;;;;;26.33;24.52;;;;;;;6.39;100.00;101013.66;4965319;28;20544;-56
2024/01/02 07:15:02;;;;;;;26.05;24.25;;;;;;;6.28;100.00;101019.28;4967377;28;20046;-61
2024/01/02 07:17:31;;;;;;;26.33;24.52;;;;;;;6.41;100.00;101009.00;4969397;28;20513;-56
2024/01/02 07:19:59;;;;;;;25.48;23.73;;;;;;;6.47;100.00;101015.41;4968698;28;20049;-56
2024/01/02 07:22:27;;;;;;;25.40;23.60;;;;;;;6.39;100.00;101011.84;4968584;28;20542;-56
2024/01/02 07:24:54;;;;;;;25.58;23.77;;;;;;;6.46;100.00;101008.50;4968280;28;20065;-56
2024/01/02 07:27:21;;;;;;;24.75;22.95;;;;;;;6.40;100.00;101007.38;4966313;28;20523;-56
2024/01/02 07:29:49;;;;;;;25.25;23.55;;;;;;;6.56;100.00;101009.94;4969690;28;20078;-56
2024/01/02 07:32:16;;;;;;;25.20;23.50;;;;;;;6.42;100.00;101022.03;4968111;28;20061;-56
2024/01/02 07:34:44;;;;;;;25.13;23.52;;;;;;;6.36;100.00;101024.56;4967245;28;20054;-61
2024/01/02 07:37:12;;;;;;;25.75;24.05;;;;;;;6.48;100.00;101022.38;4967291;28;20527;-61
2024/01/02 07:39:38;;;;;;;26.63;24.92;;;;;;;6.52;100.00;101021.03;4961911;28;20055;-56
2024/01/02 07:42:08;;;;;;;27.23;25.42;;;;;;;6.52;100.00;101027.09;4966346;28;20074;-61
2024/01/02 07:44:34;;;;;;;26.17;24.38;;;;;;;6.59;100.00;101019.31;4971441;28;20145;-56
2024/01/02 07:47:02;;;;;;;25.48;23.80;;;;;;;6.42;100.00;101023.88;4968736;28;20097;-55
2024/01/02 07:49:28;;;;;;;26.17;24.48;;;;;;;6.43;100.00;101026.31;4969658;28;20046;-61
2024/01/02 07:51:57;;;;;;;26.88;25.08;;;;;;;6.53;100.00;101026.09;4967482;28;20527;-56
2024/01/02 07:54:23;;;;;;;26.10;24.30;;;;;;;6.73;100.00;101037.06;4966534;28;20065;-56
2024/01/02 07:56:50;;;;;;;24.90;23.20;;;;;;;6.61;100.00;101035.81;4966365;28;20054;-61
2024/01/02 07:59:19;;;;;;;24.80;23.10;;;;;;;6.53;100.00;101034.03;4969163;28;20047;-55
2024/01/02 08:01:47;;;;;;;25.17;23.38;;;;;;;6.70;100.00;101040.06;4959416;28;20043;-59
2024/01/02 08:04:14;;;;;;;23.15;21.55;;;;;;;6.50;100.00;101046.75;4969024;28;20121;-56
2024/01/02 08:06:41;;;;;;;24.17;22.38;;;;;;;6.67;100.00;101050.16;4957338;28;20062;-56
2024/01/02 08:09:09;;;;;;;25.48;23.77;;;;;;;6.84;100.00;101062.28;4965335;28;20410;-56
2024/01/02 08:11:37;;;;;;;26.77;24.70;;;;;;;6.69;100.00;101070.09;4969834;28;20062;-55
2024/01/02 08:14:04;;;;;;;24.70;22.90;;;;;;;6.63;100.00;101068.97;4964396;28;20578;-56
2024/01/02 08:16:32;;;;;;;24.63;22.92;;;;;;;6.62;100.00;101072.59;4962419;28;20078;-55
2024/01/02 08:18:59;;;;;;;25.42;23.73;;;;;;;6.56;100.00;101064.53;4964101;28;20042;-56
2024/01/02 08:21:26;;;;;;;26.63;24.88;;;;;;;6.47;100.00;101076.94;4962368;28;20453;-56
2024/01/02 08:23:53;;;;;;;25.95;24.25;;;;;;;6.40;100.00;101070.69;4957345;28;20059;-55
2024/01/02 08:26:22;;;;;;;25.35;23.58;;;;;;;6.47;100.00;101076.94;4958889;28;20060;-56
2024/01/02 08:28:49;;;;;;;25.90;24.20;;;;;;;6.46;100.00;101085.03;4965440;28;20139;-61
2024/01/02 08:31:16;;;;;;;27.95;26.05;;;;;;;6.91;100.00;101086.19;4960597;28;20077;-61
2024/01/02 08:33:43;;;;;;;28.75;26.85;;;;;;;6.53;100.00;101089.44;4965220;28;20481;-61
2024/01/02 08:36:11;;;;;;;27.63;25.73;;;;;;;6.35;100.00;101094.13;4966147;28;20518;-61
2024/01/02 08:38:38;;;;;;;27.67;25.88;;;;;;;6.48;100.00;101088.34;4961410;28;20051;-61
2024/01/02 08:41:05;;;;;;;28.73;26.92;;;;;;;6.53;100.00;101078.06;4966363;28;20055;-61
2024/01/02 08:43:33;;;;;;;29.67;27.58;;;;;;;6.59;100.00;101080.03;4966613;28;20058;-61
2024/01/02 08:46:00;;;;;;;28.25;26.35;;;;;;;6.49;100.00;101076.78;4963307;28;20440;-61
2024/01/02 08:48:27;;;;;;;27.60;25.80;;;;;;;6.55;100.00;101068.19;4965052;28;20650;-61
2024/01/02 08:50:54;;;;;;;26.70;25.00;;;;;;;6.56;100.00;101068.00;4965630;28;20054;-61
2024/01/02 08:53:21;;;;;;;27.20;25.40;;;;;;;6.65;100.00;101072.25;4966966;28;20832;-61
2024/01/02 08:55:48;;;;;;;26.17;24.48;;;;;;;6.57;100.00;101072.28;4964094;28;20055;-61
2024/01/02 08:58:15;;;;;;;27.13;25.35;;;;;;;6.62;100.00;101062.03;4964846;28;20090;-61
2024/01/02 09:00:43;;;;;;;26.70;24.90;;;;;;;6.62;100.00;101056.75;4964694;28;20062;-61
2024/01/02 09:03:10;;;;;;;27.30;25.40;;;;;;;6.70;100.00;101050.63;4973671;28;20523;-61
2024/01/02 09:05:37;;;;;;;31.45;29.45;;;;;;;6.70;100.00;101047.97;4966976;28;20062;-61
2024/01/02 09:08:05;;;;;;;27.45;25.75;;;;;;;6.56;100.00;101048.69;4963186;28;20169;-61
2024/01/02 09:10:31;;;;;;;27.73;26.02;;;;;;;6.53;100.00;101041.13;4961755;28;20536;-61
2024/01/02 09:12:58;;;;;;;28.98;27.17;;;;;;;6.59;100.00;101046.53;4963315;28;20436;-56
2024/01/02 09:15:25;;;;;;;27.35;25.55;;;;;;;6.70;100.00;101021.59;4958328;28;20046;-56
2024/01/02 09:17:53;;;;;;;25.73;24.02;;;;;;;6.83;100.00;101021.00;4963088;28;20062;-56
2024/01/02 09:20:20;;;;;;;25.75;24.00;;;;;;;6.87;100.00;101011.78;4965175;28;20050;-56
2024/01/02 09:22:47;;;;;;;26.23;24.48;;;;;;;6.89;100.00;101010.56;4969915;28;20042;-56
2024/01/02 09:25:16;;;;;;;26.05;24.35;;;;;;;7.04;100.00;101002.72;4964514;28;20050;-56
2024/01/02 09:27:44;;;;;;;26.10;24.40;;;;;;;6.98;100.00;100992.88;4960741;28;20118;-55
2024/01/02 09:30:14;;;;;;;27.95;26.25;;;;;;;7.01;100.00;100983.78;4963497;28;20047;-56
2024/01/02 09:32:42;;;;;;;27.80;26.10;;;;;;;6.99;100.00;100978.69;4961228;28;20702;-56
2024/01/02 09:35:10;;;;;;;27.33;25.52;;;;;;;7.21;100.00;100987.59;4963744;28;20047;-56
2024/01/02 09:37:38;;;;;;;27.20;25.50;;;;;;;7.02;100.00;100999.47;4957729;28;20138;-55
2024/01/02 09:40:19;;;;;;;26.40;24.70;;;;;;;7.13;100.00;101005.31;4959293;28;20082;-56
2024/01/02 09:43:07;;;;;;;26.77;25.15;;;;;;;7.04;100.00;101007.19;4964346;28;20414;-56
2024/01/02 09:45:44;;;;;;;25.63;24.13;;;;;;;7.11;100.00;101010.78;4957588;28;20051;-56
2024/01/02 09:48:44;;;;;;;26.17;24.58;;;;;;;7.06;100.00;101024.50;4958697;28;20514;-56
2024/01/02 09:51:30;;;;;;;25.15;23.65;;;;;;;7.09;100.00;101013.59;4968633;28;20051;-56
2024/01/02 09:54:21;;;;;;;26.95;25.33;;;;;;;7.06;100.00;101021.06;4959907;28;20473;-56
2024/01/02 09:56:54;;;;;;;27.85;26.05;;;;;;;7.14;100.00;101018.38;4960913;28;20047;-56
2024/01/02 09:59:32;;;;;;;26.67;25.08;;;;;;;7.19;100.00;101020.47;4962837;28;20055;-56
2024/01/02 10:02:19;;;;;;;25.73;24.13;;;;;;;7.28;100.00;101019.41;4951205;28;20047;-56
2024/01/02 10:05:00;;;;;;;33.45;31.25;;;;;;;7.28;100.00;101009.66;4958136;28;20279;-56
2024/01/02 10:08:05;;;;;;;49.88;45.88;;;;;;;7.46;100.00;101011.16;4960704;28;20518;-56
2024/01/02 10:10:37;;;;;;;33.83;30.73;;;;;;;7.62;100.00;101018.13;4958382;28;20505;-56
2024/01/02 10:13:18;;;;;;;34.60;31.15;;;;;;;7.51;100.00;101020.22;4968336;28;20560;-56
2024/01/02 10:15:55;;;;;;;35.50;31.95;;;;;;;7.62;100.00;101021.59;4968586;28;20082;-56
2024/01/02 10:18:46;;;;;;;48.15;39.63;;;;;;;7.69;100.00;101014.59;4963621;28;20058;-56
2024/01/02 10:21:23;;;;;;;44.58;39.80;;;;;;;7.57;100.00;101006.28;4963743;28;20057;-56
2024/01/02 10:23:59;;;;;;;41.05;36.88;;;;;;;7.85;100.00;101003.03;4966020;28;20043;-56
2024/01/02 10:26:30;;;;;;;37.75;33.80;;;;;;;7.60;100.00;101005.09;4956188;28;20058;-56
2024/01/02 10:29:04;;;;;;;46.13;40.08;;;;;;;7.69;100.00;101006.69;4966144;28;20050;-56
2024/01/02 10:31:40;;;;;;;46.70;42.60;;;;;;;7.62;100.00;101000.44;4957050;28;20437;-56
2024/01/02 10:34:18;;;;;;;48.20;43.80;;;;;;;7.90;100.00;100995.41;4962711;28;20059;-56
2024/01/02 10:36:50;;;;;;;46.70;42.90;;;;;;;8.37;100.00;100993.38;4956424;28;20058;-56
2024/01/02 10:39:29;;;;;;;51.33;47.03;;;;;;;8.84;100.00;100974.41;4957506;28;20413;-56
2024/01/02 10:42:11;;;;;;;47.42;43.65;;;;;;;9.22;100.00;100966.19;4957048;28;20046;-56
2024/01/02 10:44:43;;;;;;;51.28;47.00;;;;;;;9.37;100.00;100963.44;4954586;28;20070;-56
2024/01/02 10:47:21;;;;;;;49.28;45.17;;;;;;;10.39;100.00;100959.41;4964013;28;20445;-56
2024/01/02 10:49:53;;;;;;;51.40;46.45;;;;;;;10.00;100.00;100953.66;4956439;28;20054;-56
2024/01/02 10:52:26;;;;;;;53.20;47.90;;;;;;;9.04;100.00;100953.38;4961028;28;20505;-56
2024/01/02 10:55:01;;;;;;;47.13;43.33;;;;;;;9.82;100.00;100953.38;4962357;28;20077;-56
2024/01/02 10:57:39;;;;;;;48.55;44.50;;;;;;;9.40;100.00;100955.13;4965293;28;20456;-56
2024/01/02 11:00:10;;;;;;;55.40;49.97;;;;;;;11.13;100.00;100947.91;4960633;28;20054;-56
2024/01/02 11:02:45;;;;;;;54.80;49.70;;;;;;;11.86;100.00;100962.00;4960987;28;20054;-56
2024/01/02 11:05:21;;;;;;;55.40;49.50;;;;;;;11.28;100.00;100943.19;4956542;28;20050;-56
2024/01/02 11:07:51;;;;;;;53.58;48.58;;;;;;;11.86;100.00;100953.19;4955826;28;20046;-56
2024/01/02 11:10:19;;;;;;;56.72;50.75;;;;;;;11.73;100.00;100945.22;4959863;28;20090;-56
2024/01/02 11:12:55;;;;;;;61.38;54.97;;;;;;;12.78;100.00;100930.66;4964058;28;20051;-56
2024/01/02 11:15:25;;;;;;;57.35;52.20;;;;;;;12.07;100.00;100926.31;4961979;28;20059;-56
2024/01/02 11:17:53;;;;;;;63.05;57.53;;;;;;;12.04;100.00;100920.56;4968187;28;20046;-56